Time;durP1;ratioP1;P1;durP2;ratioP2;P2;SDS_P1;SDS_P2;PMS_P1;PMS_P2;Temp;Humidity;BMP_temperature;BMP_pressure;BME280_temperature;BME280_humidity;BME280_pressure;Samples;Min_cycle;Max_cycle;Signal;HPM_P1;HPM_P2
2023/10/24 00:02:06;;;;;;;4.22;0.73;;;13.70;99.90;;;;;;5035633;28;20025;-74
2023/10/24 00:04:32;;;;;;;0.82;0.82;;;13.60;99.90;;;;;;5035564;28;20033;-73
2023/10/24 00:06:58;;;;;;;0.77;0.77;;;13.60;99.90;;;;;;5035548;28;20021;-73
2023/10/24 00:09:23;;;;;;;0.20;0.20;;;13.50;99.90;;;;;;5035463;28;20397;-73
2023/10/24 00:11:49;;;;;;;2.80;2.08;;;13.50;99.90;;;;;;5034408;28;20036;-73
2023/10/24 00:14:15;;;;;;;4.75;1.55;;;13.50;99.90;;;;;;5035404;28;20437;-73
2023/10/24 00:16:41;;;;;;;1.27;1.10;;;13.50;99.90;;;;;;5035488;28;20525;-73
2023/10/24 00:19:06;;;;;;;0.00;0.00;;;13.50;99.90;;;;;;5035218;28;20386;-73
2023/10/24 00:21:32;;;;;;;3.05;1.23;;;13.60;99.90;;;;;;5035542;28;20026;-73
2023/10/24 00:23:58;;;;;;;2.88;1.98;;;13.50;99.90;;;;;;5035347;28;20129;-74
2023/10/24 00:26:24;;;;;;;0.93;0.93;;;13.30;99.90;;;;;;5035354;28;20057;-73
2023/10/24 00:28:50;;;;;;;0.85;0.85;;;13.40;99.90;;;;;;5035371;28;20569;-73
2023/10/24 00:31:17;;;;;;;2.38;1.05;;;13.50;99.90;;;;;;5033735;28;20056;-74
2023/10/24 00:33:44;;;;;;;1.77;1.25;;;13.40;99.90;;;;;;5034882;28;20444;-74
2023/10/24 00:36:11;;;;;;;1.48;1.40;;;13.40;99.90;;;;;;5035310;28;20034;-73
2023/10/24 00:38:36;;;;;;;0.68;0.63;;;13.30;99.90;;;;;;5033622;28;20025;-73
2023/10/24 00:41:02;;;;;;;2.83;1.25;;;13.30;99.90;;;;;;5033610;28;20456;-72
2023/10/24 00:43:28;;;;;;;2.55;2.35;;;13.30;99.90;;;;;;5033649;28;20030;-77
2023/10/24 00:45:54;;;;;;;1.40;1.17;;;13.20;99.90;;;;;;5035060;28;20112;-76
2023/10/24 00:48:20;;;;;;;3.08;1.60;;;13.20;99.90;;;;;;5024183;28;20394;-77
2023/10/24 00:50:46;;;;;;;0.98;0.68;;;13.20;99.90;;;;;;5032185;28;20100;-76
2023/10/24 00:53:12;;;;;;;0.43;0.43;;;13.20;99.90;;;;;;5033647;28;20475;-77
2023/10/24 00:55:39;;;;;;;0.32;0.30;;;13.30;99.90;;;;;;5034313;28;20434;-77
2023/10/24 00:58:07;;;;;;;3.13;1.75;;;13.20;99.90;;;;;;5033734;28;20030;-77
2023/10/24 01:00:34;;;;;;;1.65;0.40;;;13.20;99.90;;;;;;5034729;28;20116;-77
2023/10/24 01:03:02;;;;;;;2.67;1.67;;;13.10;99.90;;;;;;5034362;28;20021;-78
2023/10/24 01:05:28;;;;;;;1.15;0.93;;;13.20;99.90;;;;;;5034456;28;20072;-73
2023/10/24 01:07:54;;;;;;;7.38;2.30;;;13.30;99.90;;;;;;5034434;28;20041;-74
2023/10/24 01:10:20;;;;;;;2.10;1.85;;;13.20;99.90;;;;;;5024841;28;20025;-74
2023/10/24 01:12:46;;;;;;;0.20;0.20;;;13.10;99.90;;;;;;5034375;28;20398;-74
2023/10/24 01:15:11;;;;;;;0.73;0.70;;;13.20;99.90;;;;;;5034355;28;20025;-74
2023/10/24 01:17:47;;;;;;;0.32;0.32;;;13.30;99.90;;;;;;5032856;28;20128;-74
2023/10/24 01:20:13;;;;;;;1.63;1.08;;;13.20;99.90;;;;;;5033082;28;20080;-73
2023/10/24 01:22:38;;;;;;;0.98;0.90;;;13.10;99.90;;;;;;5034229;28;20022;-72
2023/10/24 01:25:10;;;;;;;1.58;1.40;;;13.10;99.90;;;;;;5034266;28;20032;-73
2023/10/24 01:27:38;;;;;;;0.10;0.10;;;13.20;99.90;;;;;;5034078;28;20044;-74
2023/10/24 01:30:04;;;;;;;3.13;1.40;;;13.10;99.90;;;;;;5034079;28;20409;-73
2023/10/24 01:32:30;;;;;;;5.38;2.90;;;13.10;99.90;;;;;;5034038;28;20464;-75
2023/10/24 01:34:56;;;;;;;7.38;2.90;;;13.00;99.90;;;;;;5033812;28;20059;-73
2023/10/24 01:37:22;;;;;;;0.88;0.75;;;13.00;99.90;;;;;;5032739;28;20034;-73
2023/10/24 01:39:48;;;;;;;2.08;1.00;;;12.90;99.90;;;;;;5032395;28;20030;-73
2023/10/24 01:42:13;;;;;;;3.30;2.05;;;12.90;99.90;;;;;;5033090;28;20160;-73
2023/10/24 01:44:39;;;;;;;0.63;0.63;;;12.90;99.90;;;;;;5033461;28;20033;-73
2023/10/24 01:47:05;;;;;;;5.97;4.07;;;13.00;99.90;;;;;;5033187;28;20037;-73
2023/10/24 01:49:31;;;;;;;3.33;1.48;;;12.90;99.90;;;;;;5025968;28;20040;-73
2023/10/24 01:51:57;;;;;;;0.52;0.20;;;12.90;99.90;;;;;;5028465;28;20467;-73
2023/10/24 01:54:22;;;;;;;5.82;3.45;;;12.80;99.90;;;;;;5025129;28;20127;-73
2023/10/24 01:56:48;;;;;;;1.50;0.90;;;12.90;99.90;;;;;;5032327;28;20023;-73
2023/10/24 01:59:14;;;;;;;0.77;0.50;;;12.90;99.90;;;;;;5032835;28;20037;-73
2023/10/24 02:01:41;;;;;;;2.30;1.42;;;13.00;99.90;;;;;;5031797;28;20120;-72
2023/10/24 02:04:06;;;;;;;2.92;2.60;;;12.90;99.90;;;;;;5033563;28;20473;-73
2023/10/24 02:06:32;;;;;;;0.30;0.30;;;12.80;99.90;;;;;;5032015;28;20034;-74
2023/10/24 02:08:58;;;;;;;1.38;1.25;;;12.80;99.90;;;;;;5031556;28;20567;-74
2023/10/24 02:11:24;;;;;;;0.70;0.63;;;12.80;99.90;;;;;;5032322;28;20363;-75
2023/10/24 02:13:50;;;;;;;0.28;0.28;;;12.80;99.90;;;;;;5031693;28;20052;-73
2023/10/24 02:16:16;;;;;;;1.38;1.00;;;12.70;99.90;;;;;;5015519;28;20023;-73
2023/10/24 02:18:41;;;;;;;1.90;0.82;;;12.70;99.90;;;;;;5033201;28;20032;-73
2023/10/24 02:21:08;;;;;;;4.40;2.67;;;12.60;99.90;;;;;;5031907;28;20483;-72
2023/10/24 02:23:38;;;;;;;5.05;4.25;;;12.70;99.90;;;;;;5031921;28;20074;-73
2023/10/24 02:26:04;;;;;;;5.03;2.72;;;12.70;99.90;;;;;;5032025;28;20048;-73
2023/10/24 02:28:32;;;;;;;1.92;1.35;;;12.80;99.90;;;;;;5032954;28;20049;-73
2023/10/24 02:31:01;;;;;;;0.30;0.30;;;12.80;99.90;;;;;;5031475;28;20031;-73
2023/10/24 02:33:27;;;;;;;7.97;1.42;;;12.80;99.90;;;;;;5033127;28;20033;-73
2023/10/24 02:35:53;;;;;;;1.70;1.33;;;12.60;99.90;;;;;;5032868;28;20029;-73
2023/10/24 02:38:18;;;;;;;4.15;1.65;;;12.60;99.90;;;;;;5032966;28;20476;-72
2023/10/24 02:40:55;;;;;;;0.85;0.85;;;12.70;99.90;;;;;;5022558;28;20046;-73
2023/10/24 02:43:21;;;;;;;0.55;0.30;;;12.70;99.90;;;;;;5007717;28;20418;-73
2023/10/24 02:45:47;;;;;;;1.40;1.25;;;12.80;99.90;;;;;;5032780;28;20152;-73
2023/10/24 02:48:13;;;;;;;3.65;1.45;;;12.80;99.90;;;;;;5027097;28;20021;-73
2023/10/24 02:50:41;;;;;;;2.13;1.30;;;12.90;99.90;;;;;;5031464;28;20030;-73
2023/10/24 02:53:06;;;;;;;7.75;3.17;;;12.90;99.90;;;;;;5031416;28;20027;-73
2023/10/24 02:55:35;;;;;;;1.10;0.95;;;12.90;99.90;;;;;;5032864;28;20100;-73
2023/10/24 02:58:01;;;;;;;1.13;0.82;;;12.80;99.90;;;;;;5032116;28;20034;-73
2023/10/24 03:00:27;;;;;;;0.90;0.90;;;12.60;99.90;;;;;;5031634;28;20026;-74
2023/10/24 03:02:53;;;;;;;2.20;1.30;;;12.50;99.90;;;;;;5032461;28;20028;-73
2023/10/24 03:05:19;;;;;;;1.60;1.40;;;12.40;99.90;;;;;;5032723;28;20021;-72
2023/10/24 03:07:45;;;;;;;11.40;1.08;;;12.50;99.90;;;;;;5031123;28;20068;-73
2023/10/24 03:10:10;;;;;;;1.38;1.25;;;12.60;99.90;;;;;;5031203;28;20068;-73
2023/10/24 03:12:36;;;;;;;1.95;1.60;;;12.50;99.90;;;;;;5030873;28;20063;-72
2023/10/24 03:15:02;;;;;;;1.27;0.80;;;12.60;99.90;;;;;;5031121;28;20458;-72
2023/10/24 03:17:28;;;;;;;3.58;2.67;;;12.50;99.90;;;;;;5031198;28;20040;-73
2023/10/24 03:19:55;;;;;;;2.92;1.45;;;12.50;99.90;;;;;;5035667;28;20155;-73
2023/10/24 03:22:22;;;;;;;3.13;2.03;;;12.60;99.90;;;;;;5036384;28;20025;-73
2023/10/24 03:24:49;;;;;;;5.20;2.33;;;12.60;99.90;;;;;;5036593;28;20059;-73
2023/10/24 03:27:17;;;;;;;2.95;2.50;;;12.70;99.90;;;;;;5035640;28;20120;-73
2023/10/24 03:29:44;;;;;;;0.10;0.10;;;12.70;99.90;;;;;;5036611;28;20037;-73
2023/10/24 03:32:10;;;;;;;0.90;0.85;;;12.70;99.90;;;;;;5036240;28;20160;-73
2023/10/24 03:34:36;;;;;;;2.22;1.92;;;12.70;99.90;;;;;;5018382;28;20033;-73
2023/10/24 03:37:02;;;;;;;2.72;1.75;;;12.70;99.90;;;;;;5035096;28;20409;-72
2023/10/24 03:39:28;;;;;;;2.35;1.08;;;12.50;99.90;;;;;;5036452;28;20029;-72
2023/10/24 03:41:54;;;;;;;1.65;1.20;;;12.50;99.90;;;;;;5036080;28;20030;-73
2023/10/24 03:44:22;;;;;;;0.40;0.40;;;12.50;99.90;;;;;;5035651;28;20456;-73
2023/10/24 03:46:49;;;;;;;4.05;2.13;;;12.50;99.90;;;;;;5036143;28;20048;-73
2023/10/24 03:49:15;;;;;;;0.55;0.55;;;12.50;99.90;;;;;;5031539;28;20029;-75
2023/10/24 03:51:41;;;;;;;1.10;1.02;;;12.50;99.90;;;;;;5035889;28;20124;-75
2023/10/24 03:54:07;;;;;;;1.00;0.82;;;12.50;99.90;;;;;;5034516;28;20033;-75
2023/10/24 03:56:33;;;;;;;0.85;0.85;;;12.50;99.90;;;;;;5035628;28;20025;-74
2023/10/24 03:58:59;;;;;;;1.50;1.27;;;12.40;99.90;;;;;;5034434;28;20021;-74
2023/10/24 04:01:25;;;;;;;2.10;1.80;;;12.50;99.90;;;;;;5035739;28;20068;-74
2023/10/24 04:03:50;;;;;;;7.15;2.65;;;12.60;99.90;;;;;;5035588;28;20069;-74
2023/10/24 04:06:17;;;;;;;7.40;1.13;;;12.50;99.90;;;;;;5035442;28;20029;-76
2023/10/24 04:08:42;;;;;;;1.70;1.48;;;12.60;99.90;;;;;;5035407;28;20099;-75
2023/10/24 04:11:15;;;;;;;2.60;0.80;;;12.70;99.90;;;;;;5035472;28;20482;-77
2023/10/24 04:13:45;;;;;;;0.38;0.38;;;12.60;99.90;;;;;;5035417;28;20025;-74
2023/10/24 04:16:11;;;;;;;3.13;2.28;;;12.40;99.90;;;;;;5035401;28;20029;-73
2023/10/24 04:18:37;;;;;;;0.80;0.80;;;12.40;99.90;;;;;;5035185;28;20052;-73
2023/10/24 04:21:03;;;;;;;3.20;2.15;;;12.40;99.90;;;;;;5005578;28;20034;-74
2023/10/24 04:23:29;;;;;;;1.85;1.30;;;12.50;99.90;;;;;;5007448;28;20036;-73
2023/10/24 04:25:55;;;;;;;1.65;1.45;;;12.60;99.90;;;;;;5014753;28;20026;-73
2023/10/24 04:28:21;;;;;;;3.53;1.73;;;12.60;99.90;;;;;;5015203;28;20041;-73
2023/10/24 04:30:47;;;;;;;0.77;0.75;;;12.50;99.90;;;;;;5014711;28;20030;-73
2023/10/24 04:33:13;;;;;;;0.77;0.77;;;12.50;99.90;;;;;;5015296;28;20025;-73
2023/10/24 04:35:47;;;;;;;0.82;0.80;;;12.50;99.90;;;;;;5015554;28;20061;-74
2023/10/24 04:38:13;;;;;;;1.17;0.70;;;12.60;99.90;;;;;;5015090;28;20034;-74
2023/10/24 04:40:40;;;;;;;2.55;1.67;;;12.60;99.90;;;;;;5015018;28;20038;-73
2023/10/24 04:43:06;;;;;;;0.38;0.38;;;12.70;99.90;;;;;;5013847;28;20108;-74
2023/10/24 04:45:32;;;;;;;4.40;1.65;;;12.70;99.90;;;;;;5015024;28;20033;-73
2023/10/24 04:47:59;;;;;;;1.27;0.85;;;12.50;99.90;;;;;;5014996;28;20506;-73
2023/10/24 04:50:26;;;;;;;0.05;0.05;;;12.60;99.90;;;;;;5015019;28;20014;-73
2023/10/24 04:52:52;;;;;;;0.70;0.30;;;12.60;99.90;;;;;;5015066;28;20034;-76
2023/10/24 04:55:18;;;;;;;0.25;0.25;;;12.70;99.90;;;;;;5014498;28;20402;-77
2023/10/24 04:57:44;;;;;;;4.97;2.35;;;12.60;99.90;;;;;;5015212;28;20034;-74
2023/10/24 05:00:13;;;;;;;1.98;1.77;;;12.40;99.90;;;;;;5014658;28;20022;-78
2023/10/24 05:02:41;;;;;;;0.52;0.45;;;12.50;99.90;;;;;;5014795;28;20037;-76
2023/10/24 05:05:07;;;;;;;1.17;1.00;;;12.50;99.90;;;;;;5014187;28;20022;-77
2023/10/24 05:07:33;;;;;;;1.75;1.65;;;12.70;99.90;;;;;;5014799;28;20041;-77
2023/10/24 05:09:58;;;;;;;2.85;1.75;;;12.70;99.90;;;;;;5014750;28;20088;-77
2023/10/24 05:12:24;;;;;;;1.35;1.23;;;12.70;99.90;;;;;;5014631;28;20034;-77
2023/10/24 05:14:50;;;;;;;0.20;0.20;;;12.70;99.90;;;;;;5013302;28;20030;-76
2023/10/24 05:17:16;;;;;;;1.55;1.00;;;12.60;99.90;;;;;;5017173;28;20036;-76
2023/10/24 05:19:42;;;;;;;2.75;1.50;;;12.50;99.90;;;;;;5034392;28;20053;-78
2023/10/24 05:22:10;;;;;;;0.30;0.30;;;12.40;99.90;;;;;;5032853;28;20033;-77
2023/10/24 05:24:37;;;;;;;1.17;1.17;;;12.40;99.90;;;;;;5033813;28;20056;-77
2023/10/24 05:27:03;;;;;;;2.05;1.33;;;12.50;99.90;;;;;;5032861;28;20041;-76
2023/10/24 05:29:32;;;;;;;0.63;0.63;;;12.50;99.90;;;;;;5034045;28;20402;-77
2023/10/24 05:31:58;;;;;;;1.63;1.20;;;12.40;99.90;;;;;;5034179;28;20037;-77
2023/10/24 05:34:26;;;;;;;1.73;0.73;;;12.40;99.90;;;;;;5033780;28;20033;-73
2023/10/24 05:36:53;;;;;;;1.20;1.10;;;12.50;99.90;;;;;;5033702;28;20042;-76
2023/10/24 05:39:19;;;;;;;1.92;1.30;;;12.60;99.90;;;;;;5033982;28;20394;-78
2023/10/24 05:41:47;;;;;;;3.05;2.13;;;12.40;99.90;;;;;;5031776;28;20069;-76
2023/10/24 05:44:14;;;;;;;3.65;0.70;;;12.30;99.90;;;;;;5016320;28;20022;-76
2023/10/24 05:46:41;;;;;;;0.52;0.50;;;12.50;99.90;;;;;;5011961;28;20053;-77
2023/10/24 05:49:07;;;;;;;1.95;1.27;;;12.50;99.90;;;;;;5013220;28;20048;-76
2023/10/24 05:51:33;;;;;;;2.20;1.65;;;12.30;99.90;;;;;;5012656;28;20052;-76
2023/10/24 05:53:59;;;;;;;3.55;1.42;;;12.40;99.90;;;;;;5012871;28;20022;-77
2023/10/24 05:56:25;;;;;;;1.40;1.30;;;12.30;99.90;;;;;;5012551;28;20060;-77
2023/10/24 05:58:51;;;;;;;0.68;0.68;;;12.50;99.90;;;;;;5013041;28;20579;-78
2023/10/24 06:01:17;;;;;;;11.77;2.25;;;12.40;99.90;;;;;;5011774;28;20022;-74
2023/10/24 06:03:52;;;;;;;3.72;1.52;;;12.40;99.90;;;;;;5118204;27;20150;-74
2023/10/24 06:06:18;;;;;;;1.92;1.75;;;12.40;99.90;;;;;;5130005;27;20027;-76
2023/10/24 06:08:44;;;;;;;1.00;0.70;;;12.30;99.90;;;;;;5113539;27;20055;-75
2023/10/24 06:11:11;;;;;;;4.28;3.40;;;12.30;99.90;;;;;;5120688;27;20051;-73
2023/10/24 06:13:37;;;;;;;1.85;1.75;;;12.30;99.90;;;;;;5131593;27;20132;-73
2023/10/24 06:16:10;;;;;;;8.05;2.67;;;12.30;99.90;;;;;;5116775;27;20020;-73
2023/10/24 06:18:36;;;;;;;1.80;1.42;;;12.20;99.90;;;;;;5110794;27;20047;-76
2023/10/24 06:21:09;;;;;;;0.00;0.00;;;12.30;99.90;;;;;;5135157;27;20487;-73
2023/10/24 06:23:38;;;;;;;0.10;0.10;;;12.30;99.90;;;;;;5132583;27;20035;-72
2023/10/24 06:26:04;;;;;;;6.53;2.63;;;12.40;99.90;;;;;;5131267;27;20023;-72
2023/10/24 06:28:30;;;;;;;1.65;1.30;;;12.30;99.90;;;;;;5144661;27;20030;-73
2023/10/24 06:31:00;;;;;;;0.08;0.08;;;12.40;99.90;;;;;;5130103;27;20464;-73
2023/10/24 06:33:27;;;;;;;4.07;2.58;;;12.30;99.90;;;;;;5116965;27;20032;-73
2023/10/24 06:35:54;;;;;;;0.20;0.20;;;12.30;99.90;;;;;;5119310;27;20040;-71
2023/10/24 06:38:20;;;;;;;0.50;0.50;;;12.10;99.90;;;;;;5136882;27;20010;-70
2023/10/24 06:40:46;;;;;;;4.13;3.38;;;12.10;99.90;;;;;;5124078;27;20064;-71
2023/10/24 06:43:15;;;;;;;1.30;1.20;;;12.00;99.90;;;;;;5114303;27;20043;-71
2023/10/24 06:45:45;;;;;;;0.28;0.28;;;12.10;99.90;;;;;;5115959;27;20028;-71
2023/10/24 06:48:12;;;;;;;0.98;0.70;;;12.10;99.90;;;;;;5116997;27;20038;-71
2023/10/24 06:50:39;;;;;;;3.22;1.63;;;12.00;99.90;;;;;;5133034;27;20015;-71
2023/10/24 06:53:06;;;;;;;1.67;1.15;;;12.00;99.90;;;;;;5115651;27;20157;-73
2023/10/24 06:55:32;;;;;;;0.20;0.20;;;12.00;99.90;;;;;;5112152;27;20405;-72
2023/10/24 06:58:01;;;;;;;1.08;0.88;;;12.00;99.90;;;;;;5114123;27;20460;-71
2023/10/24 07:00:28;;;;;;;7.78;2.47;;;12.10;99.90;;;;;;5121645;27;20424;-71
2023/10/24 07:02:54;;;;;;;5.88;1.42;;;12.20;99.90;;;;;;5119602;27;20048;-74
2023/10/24 07:05:20;;;;;;;2.75;2.42;;;12.20;99.90;;;;;;5109455;27;20030;-71
2023/10/24 07:07:47;;;;;;;5.97;2.58;;;12.10;99.90;;;;;;5116177;27;20020;-75
2023/10/24 07:10:13;;;;;;;0.75;0.75;;;12.10;99.90;;;;;;5120345;27;20023;-71
2023/10/24 07:12:39;;;;;;;2.85;2.33;;;12.10;99.90;;;;;;5128064;27;20028;-71
2023/10/24 07:15:05;;;;;;;0.88;0.73;;;12.20;99.90;;;;;;5101740;27;20024;-71
2023/10/24 07:17:32;;;;;;;4.57;2.78;;;12.20;99.90;;;;;;5107048;27;20035;-71
2023/10/24 07:20:01;;;;;;;0.43;0.43;;;12.40;99.90;;;;;;5121404;27;20399;-71
2023/10/24 07:22:27;;;;;;;1.58;1.17;;;12.50;99.90;;;;;;5120659;27;20066;-71
2023/10/24 07:24:53;;;;;;;0.90;0.80;;;12.60;99.90;;;;;;5115170;28;20099;-70
2023/10/24 07:27:20;;;;;;;0.13;0.13;;;12.50;99.90;;;;;;5126979;27;20448;-71
2023/10/24 07:29:45;;;;;;;1.42;1.33;;;12.40;99.90;;;;;;5124775;27;20019;-71
2023/10/24 07:32:13;;;;;;;11.10;4.25;;;12.40;99.90;;;;;;5119698;27;20051;-71
2023/10/24 07:34:41;;;;;;;1.20;1.10;;;12.30;99.90;;;;;;5113968;28;20383;-71
2023/10/24 07:37:10;;;;;;;0.95;0.95;;;12.50;99.90;;;;;;5115385;28;20039;-70
2023/10/24 07:39:36;;;;;;;0.20;0.20;;;12.70;99.90;;;;;;5115548;28;20529;-71
2023/10/24 07:42:03;;;;;;;8.07;3.83;;;12.80;99.90;;;;;;5113043;28;20388;-71
2023/10/24 07:44:29;;;;;;;3.88;2.38;;;12.70;99.90;;;;;;5113516;28;20024;-71
2023/10/24 07:46:55;;;;;;;3.40;3.10;;;12.90;99.90;;;;;;5115596;28;20032;-72
2023/10/24 07:49:21;;;;;;;7.72;4.22;;;12.90;99.90;;;;;;5113725;28;20047;-72
2023/10/24 07:51:47;;;;;;;2.45;1.00;;;12.70;99.90;;;;;;5115375;28;20494;-73
2023/10/24 07:54:13;;;;;;;1.20;0.90;;;12.80;99.90;;;;;;5115432;27;20023;-74
2023/10/24 07:56:42;;;;;;;0.10;0.10;;;13.00;99.90;;;;;;5115108;28;20032;-74
2023/10/24 07:59:08;;;;;;;2.90;1.55;;;13.10;99.90;;;;;;5114022;28;20455;-76
2023/10/24 08:01:34;;;;;;;4.18;3.08;;;13.10;99.90;;;;;;5107831;28;20154;-75
2023/10/24 08:04:00;;;;;;;2.40;1.23;;;13.20;99.90;;;;;;5104570;28;20030;-76
2023/10/24 08:06:26;;;;;;;1.45;1.35;;;13.10;99.90;;;;;;5092399;28;20446;-73
2023/10/24 08:08:52;;;;;;;1.30;1.30;;;13.00;99.90;;;;;;5094609;28;20555;-74
2023/10/24 08:11:18;;;;;;;3.95;1.92;;;13.00;99.90;;;;;;5093329;28;20052;-74
2023/10/24 08:13:44;;;;;;;2.05;1.75;;;13.00;99.90;;;;;;5094414;28;20054;-77
2023/10/24 08:16:10;;;;;;;4.90;2.95;;;13.00;99.90;;;;;;5094410;28;20491;-75
2023/10/24 08:18:37;;;;;;;7.57;3.13;;;13.10;99.90;;;;;;5092697;28;20074;-74
2023/10/24 08:21:03;;;;;;;0.20;0.20;;;13.00;99.90;;;;;;5114537;28;20076;-76
2023/10/24 08:23:29;;;;;;;1.88;1.77;;;13.00;99.90;;;;;;5114627;28;20035;-74
2023/10/24 08:25:56;;;;;;;7.63;2.22;;;13.20;99.90;;;;;;5113689;28;20046;-75
2023/10/24 08:28:23;;;;;;;9.25;4.75;;;13.20;99.90;;;;;;5114643;28;20039;-74
2023/10/24 08:30:49;;;;;;;3.28;2.22;;;13.10;99.90;;;;;;5114099;28;20129;-74
2023/10/24 08:33:16;;;;;;;2.30;1.33;;;12.90;99.90;;;;;;5115094;28;20024;-75
2023/10/24 08:35:44;;;;;;;3.42;2.50;;;13.00;99.90;;;;;;5113999;28;20092;-76
2023/10/24 08:38:10;;;;;;;4.53;2.90;;;13.00;99.90;;;;;;5114701;28;20034;-75
2023/10/24 08:40:36;;;;;;;0.68;0.68;;;13.10;99.90;;;;;;5113265;28;20023;-74
2023/10/24 08:43:02;;;;;;;6.35;3.92;;;13.10;99.90;;;;;;5112786;28;20406;-75
2023/10/24 08:45:30;;;;;;;9.73;2.72;;;13.00;99.90;;;;;;5112595;28;20028;-76
2023/10/24 08:47:58;;;;;;;30.08;1.65;;;13.00;99.90;;;;;;5112566;28;20164;-75
2023/10/24 08:50:24;;;;;;;0.80;0.75;;;13.10;99.90;;;;;;5113154;28;20016;-76
2023/10/24 08:52:51;;;;;;;2.75;0.55;;;13.20;99.90;;;;;;5114033;28;20032;-76
2023/10/24 08:55:19;;;;;;;6.00;2.00;;;13.00;99.90;;;;;;5114156;28;20028;-76
2023/10/24 08:57:45;;;;;;;1.33;1.23;;;13.00;99.90;;;;;;5114167;28;20042;-76
2023/10/24 09:00:13;;;;;;;0.65;0.65;;;13.00;99.90;;;;;;5113576;28;20015;-73
2023/10/24 09:02:44;;;;;;;3.25;2.78;;;13.10;99.90;;;;;;5110649;27;20122;-76
2023/10/24 09:05:12;;;;;;;0.30;0.30;;;13.00;99.90;;;;;;5109815;27;20028;-74
2023/10/24 09:07:38;;;;;;;3.22;1.92;;;13.10;99.90;;;;;;5094308;27;20495;-76
2023/10/24 09:10:04;;;;;;;1.25;1.15;;;13.30;99.90;;;;;;5093810;27;20028;-73
2023/10/24 09:12:31;;;;;;;4.65;2.50;;;13.20;99.90;;;;;;5112378;27;20360;-74
2023/10/24 09:14:58;;;;;;;1.30;1.13;;;13.20;99.90;;;;;;5100382;27;20110;-72
2023/10/24 09:17:25;;;;;;;6.82;3.03;;;13.10;99.90;;;;;;5097183;27;20024;-71
2023/10/24 09:19:57;;;;;;;0.17;0.17;;;13.00;99.90;;;;;;5111190;27;20032;-71
2023/10/24 09:22:31;;;;;;;0.55;0.55;;;13.10;99.90;;;;;;5116025;27;20040;-71
2023/10/24 09:24:58;;;;;;;0.50;0.50;;;13.20;99.90;;;;;;5130201;27;20392;-71
2023/10/24 09:27:24;;;;;;;0.65;0.65;;;13.20;99.90;;;;;;5125239;27;20040;-71
2023/10/24 09:29:51;;;;;;;1.67;1.33;;;13.20;99.90;;;;;;5118062;27;20023;-71
2023/10/24 09:32:18;;;;;;;0.20;0.20;;;13.30;99.90;;;;;;5116687;27;20027;-71
2023/10/24 09:34:44;;;;;;;1.23;1.13;;;13.40;99.90;;;;;;5116432;27;20360;-71
2023/10/24 09:37:13;;;;;;;0.52;0.52;;;13.30;99.90;;;;;;5127848;27;20031;-72
2023/10/24 09:39:54;;;;;;;8.52;3.80;;;13.40;99.90;;;;;;5121523;27;20051;-71
2023/10/24 09:42:26;;;;;;;3.78;0.90;;;13.30;99.90;;;;;;5119213;27;20108;-71
2023/10/24 09:44:54;;;;;;;6.45;3.58;;;13.20;99.90;;;;;;5112426;27;20123;-72
2023/10/24 09:47:21;;;;;;;0.13;0.13;;;13.20;99.90;;;;;;5120398;27;20023;-75
2023/10/24 09:49:52;;;;;;;2.97;1.85;;;13.30;99.90;;;;;;5122176;27;20064;-75
2023/10/24 09:52:19;;;;;;;2.17;1.42;;;13.40;99.90;;;;;;5120674;27;20024;-75
2023/10/24 09:54:50;;;;;;;2.05;1.27;;;13.30;99.90;;;;;;5115866;27;20045;-74
2023/10/24 09:57:20;;;;;;;1.48;1.38;;;13.30;99.90;;;;;;5119992;27;20331;-76
2023/10/24 09:59:47;;;;;;;0.60;0.60;;;13.20;99.90;;;;;;5125827;27;20156;-70
2023/10/24 10:02:19;;;;;;;3.17;2.22;;;13.30;99.90;;;;;;5120597;28;20553;-75
2023/10/24 10:04:46;;;;;;;;;;;13.20;99.90;;;;;;5119657;28;20034;-69
2023/10/24 10:07:14;;;;;;;3.35;0.90;;;13.20;99.90;;;;;;5113215;28;20272;-71
2023/10/24 10:09:43;;;;;;;0.10;0.10;;;13.20;99.90;;;;;;5124996;28;20088;-69
2023/10/24 10:12:12;;;;;;;0.00;0.00;;;13.20;99.90;;;;;;5096435;28;20016;-70
2023/10/24 10:15:04;;;;;;;0.85;0.75;;;13.40;99.90;;;;;;5109831;28;20068;-69
2023/10/24 10:17:35;;;;;;;0.82;0.73;;;13.40;99.90;;;;;;5076221;28;20040;-69
2023/10/24 10:20:38;;;;;;;0.10;0.10;;;13.20;99.90;;;;;;5103536;28;20468;-69
2023/10/24 10:23:25;;;;;;;0.20;0.20;;;13.10;99.90;;;;;;5095758;28;20144;-70
2023/10/24 10:26:05;;;;;;;0.10;0.10;;;12.90;99.90;;;;;;5090647;28;20016;-69
2023/10/24 10:28:40;;;;;;;0.00;0.00;;;13.10;99.90;;;;;;5092034;28;20024;-69
2023/10/24 10:31:57;;;;;;;0.57;0.57;;;13.00;99.90;;;;;;5090900;28;20415;-70
2023/10/24 10:34:33;;;;;;;0.70;0.52;;;13.10;99.90;;;;;;5066872;28;20098;-74
2023/10/24 10:36:59;;;;;;;0.73;0.47;;;12.80;99.90;;;;;;5090317;28;20039;-73
2023/10/24 10:39:25;;;;;;;3.33;0.43;;;12.90;99.90;;;;;;5092036;28;20111;-73
2023/10/24 10:41:51;;;;;;;0.52;0.52;;;12.80;99.90;;;;;;5090489;28;20109;-73
2023/10/24 10:44:36;;;;;;;0.22;0.22;;;12.80;99.90;;;;;;5092295;28;20032;-72
2023/10/24 10:47:03;;;;;;;0.13;0.13;;;13.10;99.90;;;;;;5091992;28;20056;-74
2023/10/24 10:49:47;;;;;;;0.43;0.38;;;13.00;99.90;;;;;;5094249;28;20032;-72
2023/10/24 10:52:28;;;;;;;1.10;0.95;;;13.10;99.90;;;;;;5096148;28;20375;-74
2023/10/24 10:55:05;;;;;;;0.28;0.28;;;13.00;99.90;;;;;;5095792;28;20468;-70
2023/10/24 10:57:40;;;;;;;0.55;0.55;;;12.80;99.90;;;;;;5095533;28;20028;-70
2023/10/24 11:00:11;;;;;;;0.30;0.30;;;13.00;99.90;;;;;;5095741;28;20024;-71
2023/10/24 11:03:01;;;;;;;0.55;0.38;;;13.10;99.90;;;;;;5100573;28;20061;-70
2023/10/24 11:05:42;;;;;;;0.77;0.77;;;13.20;99.90;;;;;;5096459;28;20043;-70
2023/10/24 11:08:12;;;;;;;0.47;0.47;;;13.10;99.90;;;;;;5095700;28;20167;-70
2023/10/24 11:10:59;;;;;;;0.10;0.10;;;13.20;99.90;;;;;;5095430;28;20051;-70
2023/10/24 11:13:32;;;;;;;0.17;0.17;;;13.20;99.90;;;;;;5095551;28;20028;-70
2023/10/24 11:16:00;;;;;;;0.22;0.22;;;13.20;99.90;;;;;;5094120;28;20057;-70
2023/10/24 11:18:26;;;;;;;0.65;0.60;;;13.30;99.90;;;;;;5095571;28;20031;-70
2023/10/24 11:20:53;;;;;;;0.65;0.65;;;13.10;99.90;;;;;;5114201;28;20027;-70
2023/10/24 11:23:18;;;;;;;0.00;0.00;;;13.10;99.90;;;;;;5115839;28;20118;-71
2023/10/24 11:25:45;;;;;;;3.92;1.27;;;13.20;99.90;;;;;;5115514;28;20122;-70
2023/10/24 11:28:11;;;;;;;0.10;0.10;;;13.10;99.90;;;;;;5115776;28;20026;-70
2023/10/24 11:30:36;;;;;;;0.22;0.22;;;13.20;99.90;;;;;;5115762;28;20024;-70
2023/10/24 11:33:02;;;;;;;1.95;1.02;;;13.20;99.90;;;;;;5108022;28;20122;-70
2023/10/24 11:35:28;;;;;;;1.13;0.85;;;13.30;99.90;;;;;;5115823;28;20388;-70
2023/10/24 11:37:54;;;;;;;0.00;0.00;;;13.20;99.90;;;;;;5115640;28;20042;-70
2023/10/24 11:40:20;;;;;;;0.20;0.20;;;13.40;99.90;;;;;;5115585;28;20028;-71
2023/10/24 11:42:45;;;;;;;0.08;0.08;;;13.60;99.90;;;;;;5115264;28;20032;-70
2023/10/24 11:45:11;;;;;;;0.52;0.52;;;13.90;99.90;;;;;;5114298;28;20472;-70
2023/10/24 11:47:37;;;;;;;2.00;1.17;;;14.30;99.90;;;;;;5115059;28;20023;-70
2023/10/24 11:50:03;;;;;;;0.52;0.30;;;14.70;99.90;;;;;;5115527;28;20110;-70
2023/10/24 11:52:29;;;;;;;2.63;0.77;;;15.60;99.90;;;;;;5115749;28;20053;-70
2023/10/24 11:54:55;;;;;;;0.35;0.20;;;15.90;99.90;;;;;;5113580;28;20019;-69
2023/10/24 11:57:25;;;;;;;5.70;1.08;;;16.30;99.90;;;;;;5115547;28;20077;-70
2023/10/24 11:59:51;;;;;;;0.70;0.70;;;16.10;99.90;;;;;;5113564;28;20490;-69
2023/10/24 12:02:17;;;;;;;0.50;0.30;;;16.00;99.90;;;;;;5115216;28;20198;-70
2023/10/24 12:04:50;;;;;;;0.75;0.75;;;16.20;99.90;;;;;;5114939;28;20039;-70
2023/10/24 12:07:16;;;;;;;0.20;0.20;;;16.10;99.90;;;;;;5115412;28;20032;-70
2023/10/24 12:09:42;;;;;;;4.38;2.92;;;16.40;99.90;;;;;;5114729;28;20016;-71
2023/10/24 12:12:10;;;;;;;1.75;0.65;;;16.60;99.90;;;;;;5115049;28;20019;-70
2023/10/24 12:14:37;;;;;;;2.47;1.85;;;16.40;99.90;;;;;;5114832;28;20027;-70
2023/10/24 12:17:03;;;;;;;0.10;0.10;;;16.10;99.90;;;;;;5114001;28;20068;-70
2023/10/24 12:19:28;;;;;;;1.42;0.52;;;16.80;99.90;;;;;;5101560;28;20031;-70
2023/10/24 12:21:55;;;;;;;0.22;0.22;;;17.10;99.90;;;;;;5113596;28;20121;-70
2023/10/24 12:24:20;;;;;;;1.73;0.30;;;17.00;99.90;;;;;;5114201;28;20408;-70
2023/10/24 12:26:46;;;;;;;0.20;0.20;;;17.20;99.90;;;;;;5114819;28;20100;-70
2023/10/24 12:29:12;;;;;;;0.20;0.13;;;17.60;99.90;;;;;;5114481;28;20031;-70
2023/10/24 12:31:38;;;;;;;0.10;0.10;;;17.70;99.90;;;;;;5114629;28;20016;-71
2023/10/24 12:34:05;;;;;;;0.45;0.40;;;17.00;99.90;;;;;;5114389;28;20024;-70
2023/10/24 12:36:31;;;;;;;2.13;0.82;;;16.40;99.90;;;;;;5114509;28;20121;-71
2023/10/24 12:38:57;;;;;;;4.50;1.20;;;16.60;99.90;;;;;;5114386;28;20020;-71
2023/10/24 12:41:23;;;;;;;5.97;1.85;;;16.10;99.90;;;;;;5114368;28;20023;-70
2023/10/24 12:43:48;;;;;;;0.82;0.28;;;15.60;99.90;;;;;;5114217;28;20404;-69
2023/10/24 12:46:14;;;;;;;0.00;0.00;;;15.60;99.90;;;;;;5114226;28;20092;-70
2023/10/24 12:48:40;;;;;;;0.17;0.17;;;16.00;99.90;;;;;;5113159;28;20034;-69
2023/10/24 12:51:06;;;;;;;0.70;0.52;;;15.50;99.90;;;;;;5113981;28;20020;-69